This is the latest recevied weather packets stored in our database for station/object STV2-WX. If no packets are shown the sender has not sent any weather packets the latest 10 day(s).
| Time | Temp. | Humidity | Pressure | Rain* | Wind** | Luminosity | Snow |
|---|---|---|---|---|---|---|---|
| 1788333430 | 21.67° C | 53% | 1017.8 hPa | - | - | - | - |
| 1788329829 | 20° C | 60% | 1018.7 hPa | - | - | - | - |
| 1788326229 | 17.78° C | 68% | 1018.6 hPa | - | - | - | - |
| 1788322629 | 16.11° C | 75% | 1018.7 hPa | - | - | - | - |
| 1788319048 | 14.44° C | 82% | 1018.2 hPa | - | - | - | - |
| 1788315429 | 14.44° C | 79% | 1018 hPa | - | - | - | - |
| 1788311829 | 15° C | 75% | 1018 hPa | - | - | - | - |
| 1788308230 | 15.56° C | 73% | 1018 hPa | - | - | - | - |
| 1788304628 | 16.11° C | 72% | 1017.8 hPa | - | - | - | - |
| 1788301029 | 16.67° C | 68% | 1017.7 hPa | - | - | - | - |
| 1788297429 | 16.67° C | 64% | 1017.5 hPa | - | - | - | - |
| 1788293830 | 17.22° C | 57% | 1017.7 hPa | - | - | - | - |
| 1788290317 | 17.78° C | 54% | 1017.5 hPa | - | - | - | - |
| 1788286629 | 18.33° C | 50% | 1017.9 hPa | - | - | - | - |
| 1788283029 | 18.89° C | 44% | 1017.4 hPa | - | - | - | - |
| 1788279429 | 20° C | 41% | 1016.8 hPa | - | - | - | - |
| 1788275829 | 21.11° C | 41% | 1016.6 hPa | - | - | - | - |
| 1788272232 | 22.22° C | 34% | 1016.6 hPa | - | - | - | - |
| 1788268629 | 22.78° C | 31% | 1016.7 hPa | - | - | - | - |
| 1788265029 | 23.33° C | 36% | 1016.7 hPa | - | - | - | - |
| 1788261429 | 22.78° C | 41% | 1016.7 hPa | - | - | - | - |
| 1788257828 | 22.22° C | 45% | 1017.2 hPa | - | - | - | - |
| 1788254229 | 21.67° C | 48% | 1017.2 hPa | - | - | - | - |
| 1788250630 | 20.56° C | 50% | 1017.3 hPa | - | - | - | - |
| 1788247028 | 19.44° C | 54% | 1017.5 hPa | - | - | - | - |
* Rain since midnight (hover to see other rain measurements)
** Current wind speed in m/s (hover to see current wind gust speed)